createdAt,value
2018-11-25T00:00:02.284Z,8.30
2018-11-25T00:02:30.689Z,8.93
2018-11-25T00:04:59.378Z,7.73
2018-11-25T00:07:34.675Z,7.87
2018-11-25T00:09:56.578Z,9.33
2018-11-25T00:12:25.196Z,8.03
2018-11-25T00:14:53.718Z,7.23
2018-11-25T00:17:22.048Z,8.13
2018-11-25T00:19:50.634Z,8.07
2018-11-25T00:22:19.262Z,7.43
2018-11-25T00:24:47.528Z,8.13
2018-11-25T00:27:16.067Z,6.43
2018-11-25T00:29:44.701Z,7.00
2018-11-25T00:32:13.074Z,7.57
2018-11-25T00:34:41.504Z,7.47
2018-11-25T00:37:10.017Z,7.00
2018-11-25T00:39:38.487Z,6.33
2018-11-25T00:42:07.046Z,7.43
2018-11-25T00:44:35.452Z,7.17
2018-11-25T00:47:03.947Z,7.73
2018-11-25T00:49:32.571Z,7.43
2018-11-25T00:52:00.983Z,7.20
2018-11-25T00:54:29.896Z,8.00
2018-11-25T00:56:58.459Z,8.27
2018-11-25T00:59:27.041Z,6.40
2018-11-25T01:01:55.545Z,7.43
2018-11-25T01:04:24.104Z,7.93
2018-11-25T01:06:52.992Z,8.50
2018-11-25T01:09:21.554Z,8.33
2018-11-25T01:11:50.094Z,8.23
2018-11-25T01:14:18.648Z,8.83
2018-11-25T01:16:47.232Z,8.87
2018-11-25T01:19:15.633Z,7.33
2018-11-25T01:21:44.114Z,6.70
2018-11-25T01:24:12.713Z,8.57
2018-11-25T01:26:41.113Z,8.30
2018-11-25T01:29:09.629Z,6.83
2018-11-25T01:31:38.439Z,7.10
2018-11-25T01:34:07.272Z,7.13
2018-11-25T01:36:35.625Z,6.77
2018-11-25T01:39:04.390Z,6.87
2018-11-25T01:41:32.972Z,7.47
2018-11-25T01:44:01.592Z,7.13
2018-11-25T01:46:29.973Z,6.10
2018-11-25T01:48:58.503Z,6.43
2018-11-25T01:51:27.100Z,6.60
2018-11-25T01:53:56.213Z,7.37
2018-11-25T01:56:24.688Z,7.13
2018-11-25T01:58:53.269Z,6.87
2018-11-25T02:01:21.702Z,6.63
2018-11-25T02:03:49.878Z,6.93
2018-11-25T02:06:18.358Z,6.40
2018-11-25T02:08:46.785Z,5.97
2018-11-25T02:11:15.380Z,6.83
2018-11-25T02:13:43.879Z,6.23
2018-11-25T02:16:12.326Z,5.97
2018-11-25T02:18:40.910Z,6.30
2018-11-25T02:21:09.450Z,6.53
2018-11-25T02:23:37.760Z,6.53
2018-11-25T02:26:06.247Z,7.40
2018-11-25T02:28:35.101Z,6.17
2018-11-25T02:31:03.430Z,6.87
2018-11-25T02:33:32.010Z,6.93
2018-11-25T02:36:00.519Z,6.47
2018-11-25T02:38:29.102Z,6.30
2018-11-25T02:40:57.654Z,5.03
2018-11-25T02:43:26.283Z,6.70
2018-11-25T02:45:54.951Z,7.57
2018-11-25T02:48:23.418Z,7.33
2018-11-25T02:50:51.987Z,6.80
2018-11-25T02:53:20.611Z,6.97
2018-11-25T02:55:49.103Z,7.93
2018-11-25T02:58:17.790Z,7.13
2018-11-25T03:00:46.367Z,9.00
2018-11-25T03:03:14.720Z,9.17
2018-11-25T03:05:43.327Z,8.20
2018-11-25T03:08:11.928Z,8.57
2018-11-25T03:10:40.360Z,10.00
2018-11-25T03:13:08.879Z,9.70
2018-11-25T03:15:37.512Z,9.20
2018-11-25T03:18:06.020Z,8.73
2018-11-25T03:20:34.497Z,8.83
2018-11-25T03:23:02.880Z,8.03
2018-11-25T03:25:31.445Z,8.60
2018-11-25T03:28:00.029Z,8.27
2018-11-25T03:30:28.715Z,8.73
2018-11-25T03:32:57.204Z,8.40
2018-11-25T03:35:25.784Z,7.20
2018-11-25T03:37:54.403Z,8.40
2018-11-25T03:40:23.109Z,8.57
2018-11-25T03:42:51.580Z,8.70
2018-11-25T03:45:20.762Z,8.33
2018-11-25T03:47:49.209Z,7.73
2018-11-25T03:50:17.729Z,7.10
2018-11-25T03:52:46.093Z,7.67
2018-11-25T03:55:15.379Z,7.53
2018-11-25T03:57:44.011Z,7.73
2018-11-25T04:00:15.283Z,7.43
2018-11-25T04:02:43.899Z,6.80
2018-11-25T04:05:13.318Z,7.70
2018-11-25T04:07:41.752Z,6.53
2018-11-25T04:10:11.765Z,8.37
2018-11-25T04:12:40.354Z,7.47
2018-11-25T04:15:11.045Z,7.40
2018-11-25T04:17:39.535Z,8.20
2018-11-25T04:20:09.618Z,7.13
2018-11-25T04:22:38.329Z,8.13
2018-11-25T04:25:07.953Z,8.40
2018-11-25T04:27:36.700Z,8.43
2018-11-25T04:30:15.588Z,9.00
2018-11-25T04:32:44.435Z,7.90
2018-11-25T04:35:13.067Z,7.87
2018-11-25T04:37:41.333Z,6.50
2018-11-25T04:40:10.672Z,8.50
2018-11-25T04:42:38.906Z,7.97
2018-11-25T04:45:11.014Z,7.70
2018-11-25T04:47:39.340Z,9.23
2018-11-25T04:50:11.050Z,8.00
2018-11-25T04:52:41.055Z,7.00
2018-11-25T04:55:08.495Z,8.30
2018-11-25T04:57:36.921Z,8.37
2018-11-25T05:00:10.318Z,7.90
2018-11-25T05:02:39.002Z,7.33
2018-11-25T05:05:08.604Z,6.93
2018-11-25T05:07:37.135Z,8.10
2018-11-25T05:10:07.046Z,7.97
2018-11-25T05:12:35.248Z,8.50
2018-11-25T05:15:03.903Z,8.03
2018-11-25T05:17:32.220Z,8.37
2018-11-25T05:20:00.659Z,9.43
2018-11-25T05:22:29.173Z,8.73
2018-11-25T05:24:57.455Z,8.77
2018-11-25T05:27:25.927Z,8.70
2018-11-25T05:29:54.176Z,10.10
2018-11-25T05:32:22.501Z,10.73
2018-11-25T05:34:51.028Z,19.13
2018-11-25T05:37:19.438Z,21.57
2018-11-25T05:39:47.959Z,11.77
2018-11-25T05:42:16.574Z,10.63
2018-11-25T05:44:44.896Z,10.17
2018-11-25T05:47:13.524Z,9.63
2018-11-25T05:49:42.213Z,9.73
2018-11-25T05:52:10.639Z,10.50
2018-11-25T05:54:39.284Z,9.93
2018-11-25T05:57:07.706Z,12.10
2018-11-25T05:59:36.078Z,18.10
2018-11-25T06:02:04.705Z,10.30
2018-11-25T06:04:33.242Z,11.33
2018-11-25T06:07:01.660Z,10.63
2018-11-25T06:09:30.878Z,18.73
2018-11-25T06:11:59.443Z,15.50
2018-11-25T06:14:28.148Z,13.40
2018-11-25T06:16:56.724Z,12.70
2018-11-25T06:19:25.209Z,11.70
2018-11-25T06:21:53.690Z,12.37
2018-11-25T06:24:22.203Z,10.57
2018-11-25T06:26:50.635Z,10.90
2018-11-25T06:29:19.243Z,11.10
2018-11-25T06:31:48.037Z,11.40
2018-11-25T06:34:16.710Z,10.30
2018-11-25T06:36:45.297Z,8.10
2018-11-25T06:39:14.008Z,8.77
2018-11-25T06:41:43.160Z,8.73
2018-11-25T06:44:13.472Z,11.50
2018-11-25T06:46:42.631Z,11.40
2018-11-25T06:49:11.516Z,12.20
2018-11-25T06:51:39.988Z,13.00
2018-11-25T06:54:09.010Z,13.87
2018-11-25T06:56:38.262Z,15.17
2018-11-25T06:59:07.208Z,14.43
2018-11-25T07:01:36.258Z,12.67
2018-11-25T07:04:05.667Z,12.00
2018-11-25T07:06:35.363Z,13.83
2018-11-25T07:09:06.847Z,12.13
2018-11-25T07:11:35.626Z,13.07
2018-11-25T07:14:04.421Z,13.03
2018-11-25T07:16:33.222Z,15.13
2018-11-25T07:19:02.561Z,14.23
2018-11-25T07:21:31.755Z,14.63
2018-11-25T07:24:00.758Z,13.43
2018-11-25T07:26:29.321Z,13.23
2018-11-25T07:28:58.160Z,16.73
2018-11-25T07:31:27.240Z,14.70
2018-11-25T07:33:55.910Z,14.80
2018-11-25T07:36:24.650Z,14.93
2018-11-25T07:38:53.661Z,12.30
2018-11-25T07:41:22.247Z,11.77
2018-11-25T07:43:50.980Z,13.10
2018-11-25T07:46:19.833Z,10.23
2018-11-25T07:48:48.742Z,11.27
2018-11-25T07:51:17.494Z,9.80
2018-11-25T07:53:46.276Z,9.00
2018-11-25T07:56:14.929Z,7.20
2018-11-25T07:58:43.790Z,8.87
2018-11-25T08:01:13.268Z,8.13
2018-11-25T08:03:42.031Z,10.27
2018-11-25T08:06:10.805Z,9.83
2018-11-25T08:08:39.764Z,8.57
2018-11-25T08:11:08.505Z,9.93
2018-11-25T08:13:37.412Z,9.60
2018-11-25T08:16:06.090Z,9.27
2018-11-25T08:18:35.727Z,8.63
2018-11-25T08:21:05.214Z,9.20
2018-11-25T08:23:34.377Z,20.80
2018-11-25T08:26:03.151Z,7.83
2018-11-25T08:28:32.360Z,8.00
2018-11-25T08:31:01.363Z,9.20
2018-11-25T08:33:30.344Z,10.67
2018-11-25T08:35:59.335Z,8.63
2018-11-25T08:38:28.267Z,8.23
2018-11-25T08:40:56.910Z,8.70
2018-11-25T08:43:25.650Z,9.63
2018-11-25T08:45:54.499Z,6.87
2018-11-25T08:48:23.258Z,6.17
2018-11-25T08:50:51.917Z,7.30
2018-11-25T08:53:20.640Z,7.50
2018-11-25T08:55:49.646Z,11.50
2018-11-25T08:58:19.187Z,8.50
2018-11-25T09:00:48.432Z,6.83
2018-11-25T09:03:17.424Z,7.20
2018-11-25T09:05:46.150Z,6.07
2018-11-25T09:08:15.007Z,7.73
2018-11-25T09:10:43.845Z,8.83
2018-11-25T09:13:12.619Z,7.60
2018-11-25T09:15:41.423Z,7.03
2018-11-25T09:18:10.115Z,6.43
2018-11-25T09:20:38.765Z,6.87
2018-11-25T09:23:07.540Z,6.97
2018-11-25T09:25:36.372Z,6.87
2018-11-25T09:28:05.174Z,6.77
2018-11-25T09:30:34.342Z,7.03
2018-11-25T09:33:03.149Z,7.07
2018-11-25T09:35:32.121Z,7.83
2018-11-25T09:38:00.793Z,8.47
2018-11-25T09:40:29.601Z,6.67
2018-11-25T09:42:58.418Z,6.23
2018-11-25T09:45:27.493Z,7.50
2018-11-25T09:47:56.410Z,6.57
2018-11-25T09:50:25.602Z,6.50
2018-11-25T09:52:55.035Z,7.53
2018-11-25T09:55:24.681Z,6.23
2018-11-25T09:57:55.436Z,7.47
2018-11-25T10:00:27.313Z,6.80
2018-11-25T10:02:56.007Z,7.80
2018-11-25T10:05:25.228Z,5.97
2018-11-25T10:07:54.279Z,6.47
2018-11-25T10:10:23.896Z,7.03
2018-11-25T10:12:54.088Z,7.43
2018-11-25T10:15:27.835Z,6.93
2018-11-25T10:17:59.980Z,6.77
2018-11-25T10:20:29.807Z,7.50
2018-11-25T10:22:58.558Z,7.30
2018-11-25T10:25:27.286Z,7.23
2018-11-25T10:27:56.112Z,6.93
2018-11-25T10:30:26.502Z,7.47
2018-11-25T10:32:57.167Z,7.63
2018-11-25T10:35:26.055Z,6.47
2018-11-25T10:37:54.873Z,6.50
2018-11-25T10:40:24.385Z,6.50
2018-11-25T10:42:53.166Z,7.13
2018-11-25T10:45:24.245Z,7.47
2018-11-25T10:47:53.013Z,7.47
2018-11-25T10:50:21.952Z,6.77
2018-11-25T10:52:50.961Z,6.50
2018-11-25T10:55:20.332Z,6.17
2018-11-25T10:57:50.814Z,7.57
2018-11-25T11:00:29.678Z,6.77
2018-11-25T11:04:01.695Z,6.77
2018-11-25T11:06:35.840Z,7.17
2018-11-25T11:09:05.714Z,6.77
2018-11-25T11:11:34.393Z,6.43
2018-11-25T11:14:03.094Z,6.50
2018-11-25T11:16:31.890Z,6.97
2018-11-25T11:19:00.534Z,6.77
2018-11-25T11:21:29.382Z,5.33
2018-11-25T11:23:58.145Z,6.37
2018-11-25T11:26:27.348Z,5.60
2018-11-25T11:28:56.041Z,5.80
2018-11-25T11:31:24.841Z,6.13
2018-11-25T11:33:53.449Z,5.60
2018-11-25T11:36:22.110Z,5.90
2018-11-25T11:38:50.888Z,6.13
2018-11-25T11:41:19.764Z,5.77
2018-11-25T11:43:48.603Z,6.37
2018-11-25T11:46:17.203Z,6.17
2018-11-25T11:48:46.069Z,5.87
2018-11-25T11:51:15.185Z,6.13
2018-11-25T11:53:44.074Z,6.37
2018-11-25T11:56:12.840Z,5.70
2018-11-25T11:58:41.482Z,6.30
2018-11-25T12:01:10.076Z,6.33
2018-11-25T12:03:38.803Z,5.67
2018-11-25T12:06:07.563Z,6.03
2018-11-25T12:08:36.215Z,5.77
2018-11-25T12:11:04.789Z,6.17
2018-11-25T12:13:33.565Z,6.33
2018-11-25T12:16:02.314Z,5.50
2018-11-25T12:18:30.849Z,5.77
2018-11-25T12:20:59.529Z,5.70
2018-11-25T12:23:28.155Z,5.57
2018-11-25T12:25:57.060Z,6.30
2018-11-25T12:28:25.636Z,6.17
2018-11-25T12:30:54.405Z,4.90
2018-11-25T12:33:23.108Z,5.90
2018-11-25T12:35:51.846Z,6.03
2018-11-25T12:38:20.594Z,5.43
2018-11-25T12:40:49.425Z,5.30
2018-11-25T12:43:18.146Z,5.77
2018-11-25T12:45:46.877Z,5.17
2018-11-25T12:48:15.659Z,5.43
2018-11-25T12:50:44.506Z,6.30
2018-11-25T12:53:13.338Z,5.03
2018-11-25T12:55:42.223Z,5.07
2018-11-25T12:58:11.128Z,5.07
2018-11-25T13:00:41.319Z,5.50
2018-11-25T13:03:11.056Z,5.70
2018-11-25T13:05:45.970Z,5.13
2018-11-25T13:08:09.417Z,5.57
2018-11-25T13:10:38.313Z,5.20
2018-11-25T13:13:08.049Z,5.87
2018-11-25T13:15:36.790Z,5.23
2018-11-25T13:18:05.832Z,5.27
2018-11-25T13:20:34.502Z,5.27
2018-11-25T13:23:03.410Z,5.17
2018-11-25T13:25:31.683Z,5.50
2018-11-25T13:28:00.447Z,4.67
2018-11-25T13:30:30.231Z,5.10
2018-11-25T13:32:59.869Z,5.20
2018-11-25T13:35:30.005Z,4.87
2018-11-25T13:37:58.700Z,5.17
2018-11-25T13:40:27.352Z,4.47
2018-11-25T13:42:55.792Z,5.40
2018-11-25T13:45:24.388Z,4.63
2018-11-25T13:47:53.177Z,5.33
2018-11-25T13:50:21.916Z,5.00
2018-11-25T13:52:50.692Z,5.23
2018-11-25T13:55:23.635Z,5.33
2018-11-25T13:57:52.229Z,4.70
2018-11-25T14:00:29.368Z,5.73
2018-11-25T14:02:58.180Z,5.10
2018-11-25T14:05:27.104Z,4.97
2018-11-25T14:07:55.841Z,5.03
2018-11-25T14:10:26.215Z,4.90
2018-11-25T14:12:54.901Z,5.80
2018-11-25T14:15:23.520Z,4.97
2018-11-25T14:17:52.289Z,5.13
2018-11-25T14:20:20.851Z,4.67
2018-11-25T14:22:49.535Z,5.23
2018-11-25T14:25:19.088Z,5.13
2018-11-25T14:27:49.165Z,5.20
2018-11-25T14:30:19.747Z,5.57
2018-11-25T14:32:48.414Z,5.70
2018-11-25T14:35:17.979Z,5.70
2018-11-25T14:37:46.758Z,5.43
2018-11-25T14:40:16.528Z,5.47
2018-11-25T14:42:45.139Z,5.10
2018-11-25T14:45:15.180Z,4.83
2018-11-25T14:47:43.601Z,5.90
2018-11-25T14:50:14.346Z,3.90
2018-11-25T14:52:44.079Z,4.57
2018-11-25T14:55:14.145Z,4.77
2018-11-25T14:57:42.745Z,5.53
2018-11-25T15:00:15.857Z,5.73
2018-11-25T15:02:45.712Z,5.37
2018-11-25T15:05:19.256Z,5.13
2018-11-25T15:07:47.917Z,6.30
2018-11-25T15:10:16.610Z,5.33
2018-11-25T15:12:45.086Z,5.70
2018-11-25T15:15:14.290Z,5.43
2018-11-25T15:17:43.729Z,5.73
2018-11-25T15:20:12.656Z,5.37
2018-11-25T15:22:42.350Z,4.70
2018-11-25T15:25:13.775Z,5.20
2018-11-25T15:27:42.374Z,5.43
2018-11-25T15:30:11.479Z,5.63
2018-11-25T15:32:40.015Z,5.67
2018-11-25T15:35:10.794Z,5.80
2018-11-25T15:37:41.091Z,5.13
2018-11-25T15:40:11.667Z,5.10
2018-11-25T15:42:40.495Z,5.77
2018-11-25T15:45:10.282Z,5.03
2018-11-25T15:47:39.347Z,5.80
2018-11-25T15:50:10.554Z,5.20
2018-11-25T15:52:39.212Z,5.63
2018-11-25T15:55:14.932Z,5.80
2018-11-25T15:57:43.687Z,4.87
2018-11-25T16:00:16.090Z,4.77
2018-11-25T16:02:44.692Z,4.97
2018-11-25T16:05:17.527Z,5.07
2018-11-25T16:07:46.438Z,5.33
2018-11-25T16:10:15.285Z,4.93
2018-11-25T16:12:44.927Z,5.27
2018-11-25T16:15:15.583Z,5.10
2018-11-25T16:17:44.340Z,5.07
2018-11-25T16:20:14.154Z,4.50
2018-11-25T16:22:42.802Z,5.10
2018-11-25T16:25:31.701Z,4.40
2018-11-25T16:28:06.324Z,5.47
2018-11-25T16:30:35.120Z,5.13
2018-11-25T16:33:03.880Z,5.43
2018-11-25T16:35:32.832Z,5.23
2018-11-25T16:38:01.840Z,5.33
2018-11-25T16:40:30.799Z,5.03
2018-11-25T16:42:59.255Z,4.97
2018-11-25T16:45:28.138Z,4.50
2018-11-25T16:47:56.864Z,5.20
2018-11-25T16:50:25.843Z,4.90
2018-11-25T16:52:55.054Z,4.63
2018-11-25T16:55:23.907Z,4.67
2018-11-25T16:57:52.646Z,4.73
2018-11-25T17:00:22.517Z,5.40
2018-11-25T17:02:51.348Z,4.47
2018-11-25T17:05:24.260Z,5.43
2018-11-25T17:07:54.607Z,5.10
2018-11-25T17:10:23.356Z,5.07
2018-11-25T17:12:52.429Z,5.47
2018-11-25T17:15:22.512Z,5.87
2018-11-25T17:17:51.762Z,5.40
2018-11-25T17:20:20.363Z,5.60
2018-11-25T17:22:49.101Z,5.33
2018-11-25T17:25:17.769Z,5.00
2018-11-25T17:27:46.368Z,5.67
2018-11-25T17:30:17.752Z,5.57
2018-11-25T17:32:47.059Z,5.30
2018-11-25T17:35:27.609Z,5.40
2018-11-25T17:37:56.280Z,5.07
2018-11-25T17:40:24.969Z,5.20
2018-11-25T17:42:53.775Z,5.47
2018-11-25T17:45:22.468Z,5.80
2018-11-25T17:47:51.193Z,4.40
2018-11-25T17:50:24.078Z,4.97
2018-11-25T17:52:53.060Z,5.50
2018-11-25T17:55:23.008Z,4.80
2018-11-25T17:57:51.651Z,4.97
2018-11-25T18:01:32.301Z,5.37
2018-11-25T18:04:01.122Z,5.53
2018-11-25T18:06:29.880Z,5.20
2018-11-25T18:08:58.470Z,5.13
2018-11-25T18:11:27.083Z,4.83
2018-11-25T18:13:55.895Z,5.23
2018-11-25T18:16:24.586Z,5.13
2018-11-25T18:19:03.596Z,5.43
2018-11-25T18:21:32.497Z,5.93
2018-11-25T18:24:01.037Z,5.40
2018-11-25T18:26:29.671Z,5.00
2018-11-25T18:28:58.220Z,5.10
2018-11-25T18:31:26.677Z,4.87
2018-11-25T18:33:55.296Z,6.33
2018-11-25T18:36:23.804Z,5.47
2018-11-25T18:38:52.446Z,5.23
2018-11-25T18:41:22.027Z,5.07
2018-11-25T18:43:49.966Z,5.13
2018-11-25T18:46:18.507Z,5.60
2018-11-25T18:48:47.924Z,5.47
2018-11-25T18:51:16.581Z,4.60
2018-11-25T18:53:45.481Z,5.10
2018-11-25T18:56:14.360Z,5.50
2018-11-25T18:58:43.228Z,5.40
2018-11-25T19:01:36.077Z,6.00
2018-11-25T19:04:04.668Z,5.10
2018-11-25T19:06:33.294Z,5.20
2018-11-25T19:09:02.095Z,5.33
2018-11-25T19:11:31.194Z,5.90
2018-11-25T19:13:59.902Z,5.97
2018-11-25T19:16:28.421Z,6.47
2018-11-25T19:18:56.914Z,5.97
2018-11-25T19:21:25.533Z,6.23
2018-11-25T19:23:54.339Z,6.00
2018-11-25T19:26:22.859Z,6.40
2018-11-25T19:28:51.337Z,6.27
2018-11-25T19:31:19.969Z,6.53
2018-11-25T19:33:48.786Z,6.73
2018-11-25T19:36:17.260Z,6.33
2018-11-25T19:38:45.913Z,6.87
2018-11-25T19:41:14.588Z,6.90
2018-11-25T19:43:43.350Z,6.73
2018-11-25T19:46:11.826Z,6.37
2018-11-25T19:48:40.453Z,6.30
2018-11-25T19:51:16.999Z,5.90
2018-11-25T19:53:37.960Z,5.90
2018-11-25T19:56:06.643Z,6.00
2018-11-25T19:58:35.240Z,6.23
2018-11-25T20:01:04.091Z,5.90
2018-11-25T20:03:32.773Z,5.27
2018-11-25T20:06:01.432Z,5.93
2018-11-25T20:08:29.918Z,6.10
2018-11-25T20:10:58.587Z,6.63
2018-11-25T20:13:27.262Z,6.70
2018-11-25T20:16:00.284Z,6.27
2018-11-25T20:18:29.037Z,6.60
2018-11-25T20:21:03.339Z,7.67
2018-11-25T20:23:31.903Z,6.93
2018-11-25T20:26:00.583Z,6.83
2018-11-25T20:28:29.292Z,5.93
2018-11-25T20:30:58.072Z,6.40
2018-11-25T20:33:52.256Z,5.87
2018-11-25T20:36:16.350Z,6.00
2018-11-25T20:38:50.244Z,5.97
2018-11-25T20:41:18.933Z,5.37
2018-11-25T20:43:47.624Z,5.87
2018-11-25T20:46:21.653Z,6.47
2018-11-25T20:48:50.431Z,7.07
2018-11-25T20:51:23.358Z,6.47
2018-11-25T20:53:57.927Z,6.23
2018-11-25T20:56:26.236Z,6.30
2018-11-25T20:58:54.979Z,5.93
2018-11-25T21:01:23.572Z,7.03
2018-11-25T21:03:51.945Z,6.70
2018-11-25T21:06:20.496Z,7.23
2018-11-25T21:08:49.090Z,6.70
2018-11-25T21:11:17.745Z,5.77
2018-11-25T21:13:46.359Z,5.27
2018-11-25T21:16:14.958Z,5.53
2018-11-25T21:18:43.508Z,5.63
2018-11-25T21:21:11.929Z,5.57
2018-11-25T21:23:40.520Z,5.00
2018-11-25T21:26:09.204Z,5.90
2018-11-25T21:28:37.599Z,6.30
2018-11-25T21:31:06.244Z,5.57
2018-11-25T21:33:34.850Z,5.77
2018-11-25T21:36:03.432Z,5.30
2018-11-25T21:38:31.936Z,5.67
2018-11-25T21:41:00.665Z,5.27
2018-11-25T21:43:35.754Z,4.90
2018-11-25T21:46:04.627Z,6.77
2018-11-25T21:48:33.232Z,5.87
2018-11-25T21:51:01.841Z,6.30
2018-11-25T21:53:30.367Z,6.37
2018-11-25T21:55:58.962Z,6.07
2018-11-25T21:58:28.822Z,5.80
2018-11-25T22:00:55.954Z,6.87
2018-11-25T22:03:25.124Z,5.90
2018-11-25T22:05:53.787Z,5.23
2018-11-25T22:08:22.479Z,5.07
2018-11-25T22:10:50.897Z,4.73
2018-11-25T22:13:19.556Z,4.70
2018-11-25T22:15:48.211Z,5.33
2018-11-25T22:18:16.798Z,4.47
2018-11-25T22:20:45.301Z,5.80
2018-11-25T22:23:13.883Z,5.43
2018-11-25T22:25:42.471Z,5.93
2018-11-25T22:28:10.976Z,5.73
2018-11-25T22:30:39.613Z,4.90
2018-11-25T22:33:08.172Z,4.23
2018-11-25T22:35:39.750Z,5.23
2018-11-25T22:38:08.245Z,4.60
2018-11-25T22:40:36.746Z,3.83
2018-11-25T22:43:05.198Z,4.20
2018-11-25T22:45:33.902Z,4.27
2018-11-25T22:48:02.528Z,4.97
2018-11-25T22:50:31.303Z,4.03
2018-11-25T22:53:00.209Z,3.97
2018-11-25T22:55:28.623Z,4.77
2018-11-25T22:57:57.266Z,4.10
2018-11-25T23:00:28.525Z,4.10
2018-11-25T23:02:57.233Z,4.23
2018-11-25T23:05:36.735Z,4.60
2018-11-25T23:08:05.574Z,3.77
2018-11-25T23:10:35.022Z,4.17
2018-11-25T23:13:03.608Z,4.00
2018-11-25T23:15:32.051Z,3.90
2018-11-25T23:18:00.658Z,5.87
2018-11-25T23:20:29.195Z,4.47
2018-11-25T23:22:57.850Z,4.57
2018-11-25T23:25:26.368Z,5.50
2018-11-25T23:27:54.979Z,4.60
2018-11-25T23:30:23.683Z,4.07
2018-11-25T23:32:52.173Z,3.93
2018-11-25T23:35:21.748Z,4.77
2018-11-25T23:37:50.254Z,5.20
2018-11-25T23:40:18.791Z,4.53
2018-11-25T23:42:47.637Z,3.70
2018-11-25T23:45:16.481Z,4.53
2018-11-25T23:47:45.020Z,4.27
2018-11-25T23:50:14.094Z,3.97
2018-11-25T23:52:43.500Z,4.00
2018-11-25T23:55:12.755Z,3.90
2018-11-25T23:57:41.457Z,4.27
